sensor_id;sensor_type;location;lat;lon;timestamp;temperature;humidity
44166;DHT22;30476;53.468;9.826;2023-02-11T00:01:32;7.20;99.90
44166;DHT22;30476;53.468;9.826;2023-02-11T00:03:59;7.20;99.90
44166;DHT22;30476;53.468;9.826;2023-02-11T00:06:26;7.20;99.90
44166;DHT22;30476;53.468;9.826;2023-02-11T00:08:52;7.20;99.90
44166;DHT22;30476;53.468;9.826;2023-02-11T00:11:20;7.20;99.90
44166;DHT22;30476;53.468;9.826;2023-02-11T00:13:46;7.20;99.90
44166;DHT22;30476;53.468;9.826;2023-02-11T00:16:17;7.20;99.90
44166;DHT22;30476;53.468;9.826;2023-02-11T00:18:43;7.20;99.90
44166;DHT22;30476;53.468;9.826;2023-02-11T00:21:15;7.20;99.90
44166;DHT22;30476;53.468;9.826;2023-02-11T00:23:42;7.20;99.90
44166;DHT22;30476;53.468;9.826;2023-02-11T00:26:13;7.30;99.90
44166;DHT22;30476;53.468;9.826;2023-02-11T00:28:39;7.30;99.90
44166;DHT22;30476;53.468;9.826;2023-02-11T00:31:05;7.20;99.90
44166;DHT22;30476;53.468;9.826;2023-02-11T00:33:31;7.20;99.90
44166;DHT22;30476;53.468;9.826;2023-02-11T00:35:56;7.30;99.90
44166;DHT22;30476;53.468;9.826;2023-02-11T00:38:22;7.30;99.90
44166;DHT22;30476;53.468;9.826;2023-02-11T00:40:48;7.30;99.90
44166;DHT22;30476;53.468;9.826;2023-02-11T00:43:14;7.30;99.90
44166;DHT22;30476;53.468;9.826;2023-02-11T00:45:40;7.30;99.90
44166;DHT22;30476;53.468;9.826;2023-02-11T00:48:06;7.30;99.90
44166;DHT22;30476;53.468;9.826;2023-02-11T00:50:31;7.30;99.90
44166;DHT22;30476;53.468;9.826;2023-02-11T00:52:57;7.20;99.90
44166;DHT22;30476;53.468;9.826;2023-02-11T00:55:23;7.20;99.90
44166;DHT22;30476;53.468;9.826;2023-02-11T00:57:49;7.30;99.90
44166;DHT22;30476;53.468;9.826;2023-02-11T01:00:15;7.30;99.90
44166;DHT22;30476;53.468;9.826;2023-02-11T01:02:41;7.30;99.90
44166;DHT22;30476;53.468;9.826;2023-02-11T01:05:07;7.40;99.90
44166;DHT22;30476;53.468;9.826;2023-02-11T01:07:32;7.40;99.90
44166;DHT22;30476;53.468;9.826;2023-02-11T01:09:58;7.40;99.90
44166;DHT22;30476;53.468;9.826;2023-02-11T01:12:24;7.30;99.90
44166;DHT22;30476;53.468;9.826;2023-02-11T01:14:50;7.30;99.90
44166;DHT22;30476;53.468;9.826;2023-02-11T01:17:16;7.30;99.90
44166;DHT22;30476;53.468;9.826;2023-02-11T01:19:42;7.40;99.90
44166;DHT22;30476;53.468;9.826;2023-02-11T01:22:08;7.30;99.90
44166;DHT22;30476;53.468;9.826;2023-02-11T01:24:33;7.40;99.90
44166;DHT22;30476;53.468;9.826;2023-02-11T01:26:59;7.40;99.90
44166;DHT22;30476;53.468;9.826;2023-02-11T01:29:25;7.30;99.90
44166;DHT22;30476;53.468;9.826;2023-02-11T01:31:51;7.40;99.90
44166;DHT22;30476;53.468;9.826;2023-02-11T01:34:16;7.40;99.90
44166;DHT22;30476;53.468;9.826;2023-02-11T01:36:42;7.40;99.90
44166;DHT22;30476;53.468;9.826;2023-02-11T01:39:08;7.30;99.90
44166;DHT22;30476;53.468;9.826;2023-02-11T01:41:35;7.30;99.90
44166;DHT22;30476;53.468;9.826;2023-02-11T01:44:27;7.30;99.90
44166;DHT22;30476;53.468;9.826;2023-02-11T01:46:53;7.30;99.90
44166;DHT22;30476;53.468;9.826;2023-02-11T01:49:26;7.30;99.90
44166;DHT22;30476;53.468;9.826;2023-02-11T01:52:00;7.30;99.90
44166;DHT22;30476;53.468;9.826;2023-02-11T01:54:30;7.30;99.90
44166;DHT22;30476;53.468;9.826;2023-02-11T01:57:19;7.30;99.90
44166;DHT22;30476;53.468;9.826;2023-02-11T02:00:07;7.30;99.90
44166;DHT22;30476;53.468;9.826;2023-02-11T02:02:39;7.30;99.90
44166;DHT22;30476;53.468;9.826;2023-02-11T02:10:16;7.30;99.90
44166;DHT22;30476;53.468;9.826;2023-02-11T02:12:43;7.30;99.90
44166;DHT22;30476;53.468;9.826;2023-02-11T02:15:54;7.30;99.90
44166;DHT22;30476;53.468;9.826;2023-02-11T02:24:00;7.40;99.90
44166;DHT22;30476;53.468;9.826;2023-02-11T02:40:05;7.50;99.90
44166;DHT22;30476;53.468;9.826;2023-02-11T02:42:32;7.50;99.90
44166;DHT22;30476;53.468;9.826;2023-02-11T02:44:58;7.60;99.90
44166;DHT22;30476;53.468;9.826;2023-02-11T02:47:25;7.50;99.90
44166;DHT22;30476;53.468;9.826;2023-02-11T02:49:50;7.50;99.90
44166;DHT22;30476;53.468;9.826;2023-02-11T02:52:36;7.50;99.90
44166;DHT22;30476;53.468;9.826;2023-02-11T02:55:17;7.50;99.90
44166;DHT22;30476;53.468;9.826;2023-02-11T03:00:54;7.50;99.90
44166;DHT22;30476;53.468;9.826;2023-02-11T03:06:33;7.60;99.90
44166;DHT22;30476;53.468;9.826;2023-02-11T03:09:08;7.60;99.90
44166;DHT22;30476;53.468;9.826;2023-02-11T03:11:38;7.60;99.90
44166;DHT22;30476;53.468;9.826;2023-02-11T03:14:07;7.50;99.90
44166;DHT22;30476;53.468;9.826;2023-02-11T03:16:34;7.60;99.90
44166;DHT22;30476;53.468;9.826;2023-02-11T03:19:36;7.50;99.90
44166;DHT22;30476;53.468;9.826;2023-02-11T03:22:07;7.60;99.90
44166;DHT22;30476;53.468;9.826;2023-02-11T03:24:37;7.60;99.90
44166;DHT22;30476;53.468;9.826;2023-02-11T03:27:29;7.60;99.90
44166;DHT22;30476;53.468;9.826;2023-02-11T03:30:03;7.60;99.90
44166;DHT22;30476;53.468;9.826;2023-02-11T03:32:39;7.70;99.90
44166;DHT22;30476;53.468;9.826;2023-02-11T03:35:38;7.70;99.90
44166;DHT22;30476;53.468;9.826;2023-02-11T03:38:11;7.80;99.90
44166;DHT22;30476;53.468;9.826;2023-02-11T03:40:40;7.70;99.90
44166;DHT22;30476;53.468;9.826;2023-02-11T03:43:25;7.80;99.90
44166;DHT22;30476;53.468;9.826;2023-02-11T03:45:52;7.80;99.90
44166;DHT22;30476;53.468;9.826;2023-02-11T03:48:32;7.80;99.90
44166;DHT22;30476;53.468;9.826;2023-02-11T03:51:00;7.80;99.90
44166;DHT22;30476;53.468;9.826;2023-02-11T03:53:27;7.80;99.90
44166;DHT22;30476;53.468;9.826;2023-02-11T03:55:54;7.80;99.90
44166;DHT22;30476;53.468;9.826;2023-02-11T03:58:21;7.90;99.90
44166;DHT22;30476;53.468;9.826;2023-02-11T04:00:47;7.90;99.90
44166;DHT22;30476;53.468;9.826;2023-02-11T04:03:13;7.90;99.90
44166;DHT22;30476;53.468;9.826;2023-02-11T04:05:39;7.90;99.90
44166;DHT22;30476;53.468;9.826;2023-02-11T04:08:05;7.90;99.90
44166;DHT22;30476;53.468;9.826;2023-02-11T04:10:31;7.90;99.90
44166;DHT22;30476;53.468;9.826;2023-02-11T04:12:57;7.90;99.90
44166;DHT22;30476;53.468;9.826;2023-02-11T04:15:24;7.90;99.90
44166;DHT22;30476;53.468;9.826;2023-02-11T04:17:50;7.90;99.90
44166;DHT22;30476;53.468;9.826;2023-02-11T04:20:16;7.90;99.90
44166;DHT22;30476;53.468;9.826;2023-02-11T04:22:41;8.00;99.90
44166;DHT22;30476;53.468;9.826;2023-02-11T04:25:08;7.90;99.90
44166;DHT22;30476;53.468;9.826;2023-02-11T04:27:34;8.00;99.90
44166;DHT22;30476;53.468;9.826;2023-02-11T04:30:01;7.90;99.90
44166;DHT22;30476;53.468;9.826;2023-02-11T04:32:26;8.00;99.90
44166;DHT22;30476;53.468;9.826;2023-02-11T04:34:52;8.00;99.90
44166;DHT22;30476;53.468;9.826;2023-02-11T04:37:19;8.00;99.90
44166;DHT22;30476;53.468;9.826;2023-02-11T04:39:45;8.00;99.90
44166;DHT22;30476;53.468;9.826;2023-02-11T04:42:11;8.10;99.90
44166;DHT22;30476;53.468;9.826;2023-02-11T04:44:37;8.00;99.90
44166;DHT22;30476;53.468;9.826;2023-02-11T04:47:03;8.00;99.90
44166;DHT22;30476;53.468;9.826;2023-02-11T04:49:28;8.10;99.90
44166;DHT22;30476;53.468;9.826;2023-02-11T04:51:54;8.10;99.90
44166;DHT22;30476;53.468;9.826;2023-02-11T04:54:20;8.10;99.90
44166;DHT22;30476;53.468;9.826;2023-02-11T04:56:47;8.10;99.90
44166;DHT22;30476;53.468;9.826;2023-02-11T04:59:14;8.10;99.90
44166;DHT22;30476;53.468;9.826;2023-02-11T05:01:40;8.00;99.90
44166;DHT22;30476;53.468;9.826;2023-02-11T05:04:06;8.10;99.90
44166;DHT22;30476;53.468;9.826;2023-02-11T05:06:32;8.20;99.90
44166;DHT22;30476;53.468;9.826;2023-02-11T05:08:57;8.10;99.90
44166;DHT22;30476;53.468;9.826;2023-02-11T05:11:24;8.10;99.90
44166;DHT22;30476;53.468;9.826;2023-02-11T05:13:50;8.20;99.90
44166;DHT22;30476;53.468;9.826;2023-02-11T05:16:16;8.20;99.90
44166;DHT22;30476;53.468;9.826;2023-02-11T05:18:43;8.20;99.90
44166;DHT22;30476;53.468;9.826;2023-02-11T05:21:14;8.20;99.90
44166;DHT22;30476;53.468;9.826;2023-02-11T05:23:41;8.20;99.90
44166;DHT22;30476;53.468;9.826;2023-02-11T05:26:07;8.20;99.90
44166;DHT22;30476;53.468;9.826;2023-02-11T05:28:34;8.20;99.90
44166;DHT22;30476;53.468;9.826;2023-02-11T05:31:00;8.20;99.90
44166;DHT22;30476;53.468;9.826;2023-02-11T05:33:26;8.20;99.90
44166;DHT22;30476;53.468;9.826;2023-02-11T05:36:00;8.20;99.90
44166;DHT22;30476;53.468;9.826;2023-02-11T05:38:27;8.30;99.90
44166;DHT22;30476;53.468;9.826;2023-02-11T05:40:53;8.20;99.90
44166;DHT22;30476;53.468;9.826;2023-02-11T05:43:18;8.20;99.90
44166;DHT22;30476;53.468;9.826;2023-02-11T05:45:44;8.30;99.90
44166;DHT22;30476;53.468;9.826;2023-02-11T05:48:10;8.30;99.90
44166;DHT22;30476;53.468;9.826;2023-02-11T05:50:36;8.30;99.90
44166;DHT22;30476;53.468;9.826;2023-02-11T05:53:02;8.20;99.90
44166;DHT22;30476;53.468;9.826;2023-02-11T05:55:28;8.30;99.90
44166;DHT22;30476;53.468;9.826;2023-02-11T05:57:53;8.30;99.90
44166;DHT22;30476;53.468;9.826;2023-02-11T06:00:19;8.30;99.90
44166;DHT22;30476;53.468;9.826;2023-02-11T06:02:45;8.30;99.90
44166;DHT22;30476;53.468;9.826;2023-02-11T06:05:11;8.30;99.90
44166;DHT22;30476;53.468;9.826;2023-02-11T06:07:37;8.30;99.90
44166;DHT22;30476;53.468;9.826;2023-02-11T06:10:02;8.30;99.90
44166;DHT22;30476;53.468;9.826;2023-02-11T06:12:28;8.30;99.90
44166;DHT22;30476;53.468;9.826;2023-02-11T06:14:54;8.30;99.90
44166;DHT22;30476;53.468;9.826;2023-02-11T06:17:19;8.30;99.90
44166;DHT22;30476;53.468;9.826;2023-02-11T06:19:45;8.30;99.90
44166;DHT22;30476;53.468;9.826;2023-02-11T06:22:11;8.30;99.90
44166;DHT22;30476;53.468;9.826;2023-02-11T06:24:37;8.30;99.90
44166;DHT22;30476;53.468;9.826;2023-02-11T06:27:03;8.30;99.90
44166;DHT22;30476;53.468;9.826;2023-02-11T06:29:29;8.40;99.90
44166;DHT22;30476;53.468;9.826;2023-02-11T06:31:55;8.30;99.90
44166;DHT22;30476;53.468;9.826;2023-02-11T06:34:21;8.40;99.90
44166;DHT22;30476;53.468;9.826;2023-02-11T06:36:47;8.30;99.90
44166;DHT22;30476;53.468;9.826;2023-02-11T06:39:12;8.40;99.90
44166;DHT22;30476;53.468;9.826;2023-02-11T06:41:38;8.40;99.90
44166;DHT22;30476;53.468;9.826;2023-02-11T06:44:04;8.40;99.90
44166;DHT22;30476;53.468;9.826;2023-02-11T06:46:30;8.40;99.90
44166;DHT22;30476;53.468;9.826;2023-02-11T06:48:56;8.40;99.90
44166;DHT22;30476;53.468;9.826;2023-02-11T06:51:22;8.40;99.90
44166;DHT22;30476;53.468;9.826;2023-02-11T06:53:48;8.40;99.90
44166;DHT22;30476;53.468;9.826;2023-02-11T06:56:17;8.40;99.90
44166;DHT22;30476;53.468;9.826;2023-02-11T06:58:43;8.40;99.90
44166;DHT22;30476;53.468;9.826;2023-02-11T07:01:11;8.40;99.90
44166;DHT22;30476;53.468;9.826;2023-02-11T07:03:38;8.40;99.90
44166;DHT22;30476;53.468;9.826;2023-02-11T07:06:06;8.40;99.90
44166;DHT22;30476;53.468;9.826;2023-02-11T07:08:33;8.40;99.90
44166;DHT22;30476;53.468;9.826;2023-02-11T07:11:00;8.50;99.90
44166;DHT22;30476;53.468;9.826;2023-02-11T07:13:25;8.50;99.90
44166;DHT22;30476;53.468;9.826;2023-02-11T07:15:51;8.50;99.90
44166;DHT22;30476;53.468;9.826;2023-02-11T07:18:17;8.50;99.90
44166;DHT22;30476;53.468;9.826;2023-02-11T07:20:43;8.50;99.90
44166;DHT22;30476;53.468;9.826;2023-02-11T07:23:09;8.50;99.90
44166;DHT22;30476;53.468;9.826;2023-02-11T07:25:35;8.50;99.90
44166;DHT22;30476;53.468;9.826;2023-02-11T07:28:01;8.50;99.90
44166;DHT22;30476;53.468;9.826;2023-02-11T07:30:27;8.60;99.90
44166;DHT22;30476;53.468;9.826;2023-02-11T07:32:54;8.60;99.90
44166;DHT22;30476;53.468;9.826;2023-02-11T07:35:20;8.60;99.90
44166;DHT22;30476;53.468;9.826;2023-02-11T07:37:46;8.60;99.90
44166;DHT22;30476;53.468;9.826;2023-02-11T07:40:12;8.60;99.90
44166;DHT22;30476;53.468;9.826;2023-02-11T07:42:37;8.50;99.90
44166;DHT22;30476;53.468;9.826;2023-02-11T07:45:06;8.60;99.90
44166;DHT22;30476;53.468;9.826;2023-02-11T07:47:33;8.60;99.90
44166;DHT22;30476;53.468;9.826;2023-02-11T07:49:59;8.70;99.90
44166;DHT22;30476;53.468;9.826;2023-02-11T07:52:28;8.60;99.90
44166;DHT22;30476;53.468;9.826;2023-02-11T07:54:55;8.60;99.90
44166;DHT22;30476;53.468;9.826;2023-02-11T07:57:21;8.70;99.90
44166;DHT22;30476;53.468;9.826;2023-02-11T07:59:47;8.70;99.90
44166;DHT22;30476;53.468;9.826;2023-02-11T08:02:13;8.70;99.90
44166;DHT22;30476;53.468;9.826;2023-02-11T08:04:39;8.70;99.90
44166;DHT22;30476;53.468;9.826;2023-02-11T08:07:04;8.70;99.90
44166;DHT22;30476;53.468;9.826;2023-02-11T08:09:31;8.70;99.90
44166;DHT22;30476;53.468;9.826;2023-02-11T08:11:57;8.70;99.90
44166;DHT22;30476;53.468;9.826;2023-02-11T08:14:23;8.70;99.90
44166;DHT22;30476;53.468;9.826;2023-02-11T08:16:49;8.70;99.90
44166;DHT22;30476;53.468;9.826;2023-02-11T08:19:15;8.70;99.90
44166;DHT22;30476;53.468;9.826;2023-02-11T08:21:42;8.70;99.90
44166;DHT22;30476;53.468;9.826;2023-02-11T08:24:08;8.80;99.90
44166;DHT22;30476;53.468;9.826;2023-02-11T08:26:34;8.80;99.90
44166;DHT22;30476;53.468;9.826;2023-02-11T08:29:05;8.80;99.90
44166;DHT22;30476;53.468;9.826;2023-02-11T08:31:37;8.80;99.90
44166;DHT22;30476;53.468;9.826;2023-02-11T08:34:03;8.80;99.90
44166;DHT22;30476;53.468;9.826;2023-02-11T08:36:31;8.80;99.90
44166;DHT22;30476;53.468;9.826;2023-02-11T08:38:59;8.80;99.90
44166;DHT22;30476;53.468;9.826;2023-02-11T08:41:27;8.80;99.90
44166;DHT22;30476;53.468;9.826;2023-02-11T08:43:52;8.80;99.90
44166;DHT22;30476;53.468;9.826;2023-02-11T08:46:19;8.90;99.90
44166;DHT22;30476;53.468;9.826;2023-02-11T08:48:45;8.90;99.90
44166;DHT22;30476;53.468;9.826;2023-02-11T08:51:23;8.90;99.90
44166;DHT22;30476;53.468;9.826;2023-02-11T08:53:50;8.90;99.90
44166;DHT22;30476;53.468;9.826;2023-02-11T08:56:18;8.90;99.90
44166;DHT22;30476;53.468;9.826;2023-02-11T08:58:44;8.90;99.90
44166;DHT22;30476;53.468;9.826;2023-02-11T09:01:12;8.90;99.90
44166;DHT22;30476;53.468;9.826;2023-02-11T09:03:38;8.90;99.90
44166;DHT22;30476;53.468;9.826;2023-02-11T09:06:08;8.90;99.90
44166;DHT22;30476;53.468;9.826;2023-02-11T09:08:35;8.90;99.90
44166;DHT22;30476;53.468;9.826;2023-02-11T09:11:01;8.90;99.90
44166;DHT22;30476;53.468;9.826;2023-02-11T09:13:29;8.90;99.90
44166;DHT22;30476;53.468;9.826;2023-02-11T09:15:55;8.90;99.90
44166;DHT22;30476;53.468;9.826;2023-02-11T09:18:21;8.90;99.90
44166;DHT22;30476;53.468;9.826;2023-02-11T09:20:47;9.00;99.90
44166;DHT22;30476;53.468;9.826;2023-02-11T09:23:13;8.90;99.90
44166;DHT22;30476;53.468;9.826;2023-02-11T09:25:39;8.90;99.90
44166;DHT22;30476;53.468;9.826;2023-02-11T09:28:09;8.90;99.90
44166;DHT22;30476;53.468;9.826;2023-02-11T09:30:36;8.90;99.90
44166;DHT22;30476;53.468;9.826;2023-02-11T09:33:02;8.90;99.90
44166;DHT22;30476;53.468;9.826;2023-02-11T09:35:28;9.00;99.90
44166;DHT22;30476;53.468;9.826;2023-02-11T09:37:54;9.00;99.90
44166;DHT22;30476;53.468;9.826;2023-02-11T09:40:20;9.00;99.90
44166;DHT22;30476;53.468;9.826;2023-02-11T09:43:05;9.00;99.90
44166;DHT22;30476;53.468;9.826;2023-02-11T09:45:34;9.00;99.90
44166;DHT22;30476;53.468;9.826;2023-02-11T09:48:04;9.10;99.90
44166;DHT22;30476;53.468;9.826;2023-02-11T09:50:39;9.00;99.90
44166;DHT22;30476;53.468;9.826;2023-02-11T09:53:08;9.10;99.90
44166;DHT22;30476;53.468;9.826;2023-02-11T09:55:40;9.10;99.90
44166;DHT22;30476;53.468;9.826;2023-02-11T09:58:30;9.10;99.90
44166;DHT22;30476;53.468;9.826;2023-02-11T10:01:25;9.10;99.90
44166;DHT22;30476;53.468;9.826;2023-02-11T10:04:03;9.10;99.90
44166;DHT22;30476;53.468;9.826;2023-02-11T10:06:44;9.20;99.90
44166;DHT22;30476;53.468;9.826;2023-02-11T10:22:26;9.30;99.90
44166;DHT22;30476;53.468;9.826;2023-02-11T10:24:57;9.30;99.90
44166;DHT22;30476;53.468;9.826;2023-02-11T10:27:32;9.20;99.90
44166;DHT22;30476;53.468;9.826;2023-02-11T10:30:22;9.20;99.90
44166;DHT22;30476;53.468;9.826;2023-02-11T10:33:11;9.30;99.90
44166;DHT22;30476;53.468;9.826;2023-02-11T10:35:38;9.30;99.90
44166;DHT22;30476;53.468;9.826;2023-02-11T10:38:04;9.20;99.90
44166;DHT22;30476;53.468;9.826;2023-02-11T10:40:30;9.20;99.90
44166;DHT22;30476;53.468;9.826;2023-02-11T10:43:00;9.20;99.90
44166;DHT22;30476;53.468;9.826;2023-02-11T10:45:33;9.20;99.90
44166;DHT22;30476;53.468;9.826;2023-02-11T10:48:05;9.20;99.90
44166;DHT22;30476;53.468;9.826;2023-02-11T10:50:33;9.20;99.90
44166;DHT22;30476;53.468;9.826;2023-02-11T10:53:18;9.20;99.90
44166;DHT22;30476;53.468;9.826;2023-02-11T10:55:53;9.30;99.90
44166;DHT22;30476;53.468;9.826;2023-02-11T10:58:29;9.30;99.90
44166;DHT22;30476;53.468;9.826;2023-02-11T11:00:57;9.30;99.90
44166;DHT22;30476;53.468;9.826;2023-02-11T11:03:26;9.30;99.90
44166;DHT22;30476;53.468;9.826;2023-02-11T11:05:56;9.40;99.90
44166;DHT22;30476;53.468;9.826;2023-02-11T11:08:43;9.30;99.90
44166;DHT22;30476;53.468;9.826;2023-02-11T11:11:11;9.40;99.90
44166;DHT22;30476;53.468;9.826;2023-02-11T11:13:41;9.40;99.90
44166;DHT22;30476;53.468;9.826;2023-02-11T11:16:18;9.40;99.90
44166;DHT22;30476;53.468;9.826;2023-02-11T11:21:45;9.40;99.90
44166;DHT22;30476;53.468;9.826;2023-02-11T11:24:22;9.40;99.90
44166;DHT22;30476;53.468;9.826;2023-02-11T11:26:52;9.50;99.90
44166;DHT22;30476;53.468;9.826;2023-02-11T11:29:38;9.50;99.90
44166;DHT22;30476;53.468;9.826;2023-02-11T11:32:26;9.50;99.90
44166;DHT22;30476;53.468;9.826;2023-02-11T11:34:59;9.50;99.90
44166;DHT22;30476;53.468;9.826;2023-02-11T11:37:32;9.50;99.90
44166;DHT22;30476;53.468;9.826;2023-02-11T11:40:09;9.50;99.90
44166;DHT22;30476;53.468;9.826;2023-02-11T11:42:37;9.50;99.90
44166;DHT22;30476;53.468;9.826;2023-02-11T11:47:51;9.50;99.90
44166;DHT22;30476;53.468;9.826;2023-02-11T11:53:30;9.50;99.90
44166;DHT22;30476;53.468;9.826;2023-02-11T11:56:27;9.60;99.90
44166;DHT22;30476;53.468;9.826;2023-02-11T11:58:55;9.60;99.90
44166;DHT22;30476;53.468;9.826;2023-02-11T12:04:18;9.50;99.90
44166;DHT22;30476;53.468;9.826;2023-02-11T12:09:47;9.60;99.90
44166;DHT22;30476;53.468;9.826;2023-02-11T12:12:43;9.70;99.90
44166;DHT22;30476;53.468;9.826;2023-02-11T12:15:33;9.60;99.90
44166;DHT22;30476;53.468;9.826;2023-02-11T12:18:27;9.70;99.90
44166;DHT22;30476;53.468;9.826;2023-02-11T12:26:20;9.70;99.90
44166;DHT22;30476;53.468;9.826;2023-02-11T12:29:02;9.80;99.90
44166;DHT22;30476;53.468;9.826;2023-02-11T12:34:18;9.80;99.90
44166;DHT22;30476;53.468;9.826;2023-02-11T12:37:10;9.80;99.90
44166;DHT22;30476;53.468;9.826;2023-02-11T12:39:48;9.90;99.90
44166;DHT22;30476;53.468;9.826;2023-02-11T12:42:43;9.90;99.90
44166;DHT22;30476;53.468;9.826;2023-02-11T12:48:58;9.90;99.90
44166;DHT22;30476;53.468;9.826;2023-02-11T12:57:23;9.90;99.90
44166;DHT22;30476;53.468;9.826;2023-02-11T13:00:07;9.90;99.90
44166;DHT22;30476;53.468;9.826;2023-02-11T13:02:46;9.90;99.90
44166;DHT22;30476;53.468;9.826;2023-02-11T13:05:41;9.90;99.90
44166;DHT22;30476;53.468;9.826;2023-02-11T13:08:41;9.90;99.90
44166;DHT22;30476;53.468;9.826;2023-02-11T13:11:38;9.90;99.90
44166;DHT22;30476;53.468;9.826;2023-02-11T13:14:14;9.90;99.90
44166;DHT22;30476;53.468;9.826;2023-02-11T13:16:43;9.90;99.90
44166;DHT22;30476;53.468;9.826;2023-02-11T13:24:30;9.90;99.90
44166;DHT22;30476;53.468;9.826;2023-02-11T13:27:05;10.00;99.90
44166;DHT22;30476;53.468;9.826;2023-02-11T13:37:56;10.00;99.90
44166;DHT22;30476;53.468;9.826;2023-02-11T13:43:00;10.00;99.90
44166;DHT22;30476;53.468;9.826;2023-02-11T13:48:21;10.00;99.90
44166;DHT22;30476;53.468;9.826;2023-02-11T13:50:50;10.00;99.90
44166;DHT22;30476;53.468;9.826;2023-02-11T13:53:17;10.10;99.90
44166;DHT22;30476;53.468;9.826;2023-02-11T13:55:45;10.10;99.90
44166;DHT22;30476;53.468;9.826;2023-02-11T14:00:46;10.10;99.90
44166;DHT22;30476;53.468;9.826;2023-02-11T14:09:04;10.10;99.90
44166;DHT22;30476;53.468;9.826;2023-02-11T14:11:42;10.10;99.90
44166;DHT22;30476;53.468;9.826;2023-02-11T14:14:21;10.20;99.90
44166;DHT22;30476;53.468;9.826;2023-02-11T14:22:25;10.20;99.90
44166;DHT22;30476;53.468;9.826;2023-02-11T14:25:03;10.10;99.90
44166;DHT22;30476;53.468;9.826;2023-02-11T14:27:40;10.20;99.90
44166;DHT22;30476;53.468;9.826;2023-02-11T14:33:30;10.20;99.90
44166;DHT22;30476;53.468;9.826;2023-02-11T14:36:42;10.20;99.90
44166;DHT22;30476;53.468;9.826;2023-02-11T14:41:48;10.20;99.90
44166;DHT22;30476;53.468;9.826;2023-02-11T14:44:27;10.20;99.90
44166;DHT22;30476;53.468;9.826;2023-02-11T14:46:54;10.20;99.90
44166;DHT22;30476;53.468;9.826;2023-02-11T14:49:47;10.20;99.90
44166;DHT22;30476;53.468;9.826;2023-02-11T14:52:24;10.20;99.90
44166;DHT22;30476;53.468;9.826;2023-02-11T14:54:51;10.20;99.90
44166;DHT22;30476;53.468;9.826;2023-02-11T14:57:21;10.20;99.90
44166;DHT22;30476;53.468;9.826;2023-02-11T14:59:55;10.20;99.90
44166;DHT22;30476;53.468;9.826;2023-02-11T15:02:28;10.20;99.90
44166;DHT22;30476;53.468;9.826;2023-02-11T15:04:54;10.20;99.90
44166;DHT22;30476;53.468;9.826;2023-02-11T15:07:20;10.20;99.90
44166;DHT22;30476;53.468;9.826;2023-02-11T15:09:52;10.20;99.90
44166;DHT22;30476;53.468;9.826;2023-02-11T15:12:22;10.10;99.90
44166;DHT22;30476;53.468;9.826;2023-02-11T15:14:52;10.20;99.90
44166;DHT22;30476;53.468;9.826;2023-02-11T15:17:25;10.10;99.90
44166;DHT22;30476;53.468;9.826;2023-02-11T15:19:55;10.20;99.90
44166;DHT22;30476;53.468;9.826;2023-02-11T15:22:28;10.10;99.90
44166;DHT22;30476;53.468;9.826;2023-02-11T15:25:01;10.10;99.90
44166;DHT22;30476;53.468;9.826;2023-02-11T15:27:40;10.20;99.90
44166;DHT22;30476;53.468;9.826;2023-02-11T15:32:48;10.20;99.90
44166;DHT22;30476;53.468;9.826;2023-02-11T15:35:16;10.10;99.90
44166;DHT22;30476;53.468;9.826;2023-02-11T15:37:43;10.10;99.90
44166;DHT22;30476;53.468;9.826;2023-02-11T15:40:22;10.10;99.90
44166;DHT22;30476;53.468;9.826;2023-02-11T15:45:22;10.10;99.90
44166;DHT22;30476;53.468;9.826;2023-02-11T15:48:10;10.00;99.90
44166;DHT22;30476;53.468;9.826;2023-02-11T15:50:38;10.00;99.90
44166;DHT22;30476;53.468;9.826;2023-02-11T15:53:26;10.00;99.90
44166;DHT22;30476;53.468;9.826;2023-02-11T15:56:01;10.00;99.90
44166;DHT22;30476;53.468;9.826;2023-02-11T15:58:28;9.90;99.90
44166;DHT22;30476;53.468;9.826;2023-02-11T16:00:54;9.90;99.90
44166;DHT22;30476;53.468;9.826;2023-02-11T16:03:26;9.90;99.90
44166;DHT22;30476;53.468;9.826;2023-02-11T16:06:15;10.00;99.90
44166;DHT22;30476;53.468;9.826;2023-02-11T16:08:41;10.00;99.90
44166;DHT22;30476;53.468;9.826;2023-02-11T16:11:29;9.90;99.90
44166;DHT22;30476;53.468;9.826;2023-02-11T16:13:56;10.00;99.90
44166;DHT22;30476;53.468;9.826;2023-02-11T16:16:26;9.90;99.90
44166;DHT22;30476;53.468;9.826;2023-02-11T16:18:55;9.90;99.90
44166;DHT22;30476;53.468;9.826;2023-02-11T16:21:27;9.90;99.90
44166;DHT22;30476;53.468;9.826;2023-02-11T16:23:56;9.90;99.90
44166;DHT22;30476;53.468;9.826;2023-02-11T16:26:41;9.90;99.90
44166;DHT22;30476;53.468;9.826;2023-02-11T16:29:15;9.90;99.90
44166;DHT22;30476;53.468;9.826;2023-02-11T16:31:44;9.80;99.90
44166;DHT22;30476;53.468;9.826;2023-02-11T16:36:38;9.90;99.90
44166;DHT22;30476;53.468;9.826;2023-02-11T16:39:03;9.90;99.90
44166;DHT22;30476;53.468;9.826;2023-02-11T16:41:29;9.80;99.90
44166;DHT22;30476;53.468;9.826;2023-02-11T16:43:56;9.90;99.90
44166;DHT22;30476;53.468;9.826;2023-02-11T16:46:23;9.90;99.90
44166;DHT22;30476;53.468;9.826;2023-02-11T16:48:48;9.90;99.90
44166;DHT22;30476;53.468;9.826;2023-02-11T16:51:14;9.80;99.90
44166;DHT22;30476;53.468;9.826;2023-02-11T16:53:40;9.80;99.90
44166;DHT22;30476;53.468;9.826;2023-02-11T16:56:08;9.80;99.90
44166;DHT22;30476;53.468;9.826;2023-02-11T16:58:36;9.80;99.90
44166;DHT22;30476;53.468;9.826;2023-02-11T17:01:01;9.80;99.90
44166;DHT22;30476;53.468;9.826;2023-02-11T17:03:27;9.80;99.90
44166;DHT22;30476;53.468;9.826;2023-02-11T17:05:53;9.80;99.90
44166;DHT22;30476;53.468;9.826;2023-02-11T17:08:19;9.80;99.90
44166;DHT22;30476;53.468;9.826;2023-02-11T17:10:45;9.80;99.90
44166;DHT22;30476;53.468;9.826;2023-02-11T17:13:11;9.80;99.90
44166;DHT22;30476;53.468;9.826;2023-02-11T17:15:37;9.80;99.90
44166;DHT22;30476;53.468;9.826;2023-02-11T17:18:03;9.80;99.90
44166;DHT22;30476;53.468;9.826;2023-02-11T17:20:28;9.80;99.90
44166;DHT22;30476;53.468;9.826;2023-02-11T17:22:54;9.80;99.90
44166;DHT22;30476;53.468;9.826;2023-02-11T17:25:20;9.70;99.90
44166;DHT22;30476;53.468;9.826;2023-02-11T17:27:48;9.70;99.90
44166;DHT22;30476;53.468;9.826;2023-02-11T17:30:13;9.70;99.90
44166;DHT22;30476;53.468;9.826;2023-02-11T17:32:39;9.70;99.90
44166;DHT22;30476;53.468;9.826;2023-02-11T17:35:05;9.70;99.90
44166;DHT22;30476;53.468;9.826;2023-02-11T17:37:31;9.70;99.90
44166;DHT22;30476;53.468;9.826;2023-02-11T17:39:57;9.70;99.90
44166;DHT22;30476;53.468;9.826;2023-02-11T17:42:23;9.70;99.90
44166;DHT22;30476;53.468;9.826;2023-02-11T17:44:49;9.70;99.90
44166;DHT22;30476;53.468;9.826;2023-02-11T17:47:15;9.70;99.90
44166;DHT22;30476;53.468;9.826;2023-02-11T17:49:41;9.60;99.90
44166;DHT22;30476;53.468;9.826;2023-02-11T17:52:07;9.70;99.90
44166;DHT22;30476;53.468;9.826;2023-02-11T17:54:33;9.60;99.90
44166;DHT22;30476;53.468;9.826;2023-02-11T17:56:59;9.70;99.90
44166;DHT22;30476;53.468;9.826;2023-02-11T17:59:25;9.70;99.90
44166;DHT22;30476;53.468;9.826;2023-02-11T18:01:53;9.70;99.90
44166;DHT22;30476;53.468;9.826;2023-02-11T18:04:19;9.70;99.90
44166;DHT22;30476;53.468;9.826;2023-02-11T18:06:45;9.80;99.90